Time;durP1;ratioP1;P1;durP2;ratioP2;P2;SDS_P1;SDS_P2;PMS_P1;PMS_P2;Temp;Humidity;BMP_temperature;BMP_pressure;BME280_temperature;BME280_humidity;BME280_pressure;Samples;Min_cycle;Max_cycle;Signal;HPM_P1;HPM_P2
2021/11/27 00:01:05;;;;;;;9.40;1.90;;;;;;;-142.75;100.00;75822.34;5048555;28;20438;-64
2021/11/27 00:03:31;;;;;;;2.88;0.75;;;;;;;-142.75;100.00;75810.53;5049274;28;20470;-63
2021/11/27 00:05:58;;;;;;;4.47;0.70;;;;;;;-142.75;100.00;75810.53;5049225;28;20031;-64
2021/11/27 00:08:24;;;;;;;3.70;0.87;;;;;;;-142.75;100.00;75808.56;5049080;28;20032;-64
2021/11/27 00:10:50;;;;;;;;;;;;;;;-142.75;100.00;75802.66;5030822;28;20021;-64
2021/11/27 00:13:16;;;;;;;6.15;0.85;;;;;;;-142.75;100.00;75794.78;5049228;28;20362;-63
2021/11/27 00:15:43;;;;;;;3.70;0.80;;;;;;;-142.75;100.00;75802.66;5049203;28;20033;-66
2021/11/27 00:18:09;;;;;;;6.70;1.23;;;;;;;-142.75;100.00;75818.41;5048764;28;20120;-65
2021/11/27 00:20:42;;;;;;;3.80;0.70;;;;;;;-142.75;100.00;75838.09;5048316;28;20035;-64
2021/11/27 00:23:07;;;;;;;3.33;0.80;;;;;;;-142.75;100.00;75818.41;5048928;28;20066;-64
2021/11/27 00:25:33;;;;;;;4.28;0.68;;;;;;;-142.75;100.00;75818.41;5031078;28;20100;-66
2021/11/27 00:27:59;;;;;;;5.72;1.02;;;;;;;-142.75;100.00;75814.47;5048955;28;20152;-65
2021/11/27 00:30:29;;;;;;;5.60;1.27;;;;;;;-142.75;100.00;75808.56;5048178;28;20029;-65
2021/11/27 00:32:55;;;;;;;3.87;0.70;;;;;;;-142.75;100.00;75806.59;5048553;28;20053;-65
2021/11/27 00:35:20;;;;;;;6.15;0.70;;;;;;;-142.75;100.00;75798.72;5048951;28;20505;-64
2021/11/27 00:37:51;;;;;;;5.00;1.00;;;;;;;-142.75;100.00;75800.69;5048989;28;20104;-64
2021/11/27 00:40:16;;;;;;;3.07;0.60;;;;;;;-142.75;100.00;75786.91;5047095;28;20060;-65
2021/11/27 00:42:42;;;;;;;2.90;0.70;;;;;;;-142.75;100.00;75782.97;5062059;28;20017;-65
2021/11/27 00:45:12;;;;;;;7.28;0.90;;;;;;;-142.75;100.00;75784.94;5068947;28;20693;-65
2021/11/27 00:47:43;;;;;;;3.33;0.70;;;;;;;-142.75;100.00;75788.88;5068802;28;20025;-65
2021/11/27 00:50:11;;;;;;;1.30;0.40;;;;;;;-142.75;100.00;75798.72;5068165;28;20154;-65
2021/11/27 00:52:36;;;;;;;2.47;0.53;;;;;;;-142.75;100.00;75812.50;5068717;28;20016;-65
2021/11/27 00:55:03;;;;;;;4.15;0.75;;;;;;;-142.75;100.00;75834.16;5068720;28;20024;-65
2021/11/27 00:57:30;;;;;;;4.37;0.97;;;;;;;-142.75;100.00;75814.47;5047194;28;20098;-65
2021/11/27 00:59:55;;;;;;;3.43;0.60;;;;;;;-142.75;100.00;75802.66;5047950;28;20491;-65
2021/11/27 01:02:21;;;;;;;3.72;0.65;;;;;;;-142.75;100.00;75802.66;5051168;28;20109;-65
2021/11/27 01:04:46;;;;;;;3.53;0.70;;;;;;;-142.75;100.00;75816.44;5052740;28;20056;-65
2021/11/27 01:07:11;;;;;;;2.83;0.93;;;;;;;-142.75;100.00;75802.66;5052388;28;20414;-65
2021/11/27 01:09:37;;;;;;;7.40;0.97;;;;;;;-142.75;100.00;75806.59;5034136;28;20029;-65
2021/11/27 01:12:03;;;;;;;2.45;0.60;;;;;;;-142.75;100.00;75802.66;5033842;28;20364;-64
2021/11/27 01:14:29;;;;;;;3.13;0.80;;;;;;;-142.75;100.00;75802.66;5052232;28;20500;-65
2021/11/27 01:16:57;;;;;;;;;;;;;;;-142.75;100.00;75798.72;5052607;28;20052;-67
2021/11/27 01:19:26;;;;;;;2.43;0.50;;;;;;;-142.75;100.00;75798.72;5052005;28;19913;-65
2021/11/27 01:21:56;;;;;;;3.93;0.60;;;;;;;-142.75;100.00;75796.75;5051434;28;20032;-65
2021/11/27 01:24:21;;;;;;;1.77;0.47;;;;;;;-142.75;100.00;75814.47;5034268;28;20021;-64
2021/11/27 01:26:47;;;;;;;1.17;0.65;;;;;;;-142.75;100.00;75806.59;5052289;28;20036;-65
2021/11/27 01:29:13;;;;;;;3.95;0.95;;;;;;;-142.75;100.00;75798.72;5051998;28;20028;-65
2021/11/27 01:31:38;;;;;;;2.53;0.80;;;;;;;-142.75;100.00;75800.69;5051275;28;20479;-65
2021/11/27 01:34:06;;;;;;;2.60;0.70;;;;;;;-142.75;100.00;75816.44;5033925;28;20053;-65
2021/11/27 01:36:32;;;;;;;4.60;0.70;;;;;;;-142.75;100.00;75802.66;5051929;28;20375;-65
2021/11/27 01:38:57;;;;;;;6.97;0.70;;;;;;;-142.75;100.00;75796.75;5032649;28;20036;-65
2021/11/27 01:41:23;;;;;;;2.60;0.80;;;;;;;-142.75;100.00;75796.75;5050953;28;20040;-65
2021/11/27 01:43:48;;;;;;;7.78;1.15;;;;;;;-142.75;100.00;75794.78;5051739;28;20092;-67
2021/11/27 01:46:14;;;;;;;4.67;1.50;;;;;;;-142.75;100.00;75800.69;5052130;28;20036;-65
2021/11/27 01:48:40;;;;;;;2.83;0.63;;;;;;;-142.75;100.00;75802.66;5051510;28;20279;-65
2021/11/27 01:51:07;;;;;;;;;;;;;;;-142.75;100.00;75798.72;5051324;28;20067;-65
2021/11/27 01:53:36;;;;;;;2.60;0.70;;;;;;;-142.75;100.00;75796.75;5051320;28;19917;-65
2021/11/27 01:56:06;;;;;;;5.47;0.97;;;;;;;-142.75;100.00;75798.72;5051677;28;20409;-66
2021/11/27 01:58:32;;;;;;;2.77;0.60;;;;;;;-142.75;100.00;75814.47;5051666;28;20117;-65
2021/11/27 02:01:01;;;;;;;2.58;0.65;;;;;;;-142.75;100.00;75822.34;5050733;28;20040;-65
2021/11/27 02:03:27;;;;;;;5.13;0.70;;;;;;;-142.75;100.00;75818.41;5051338;28;20560;-65
2021/11/27 02:05:53;;;;;;;2.67;0.85;;;;;;;-142.75;100.00;75818.41;5051419;28;20482;-66
2021/11/27 02:08:18;;;;;;;2.80;0.70;;;;;;;-142.75;100.00;75826.28;5051495;28;20020;-66
2021/11/27 02:10:45;;;;;;;4.97;1.00;;;;;;;-142.75;100.00;75834.16;5050201;28;20033;-66
2021/11/27 02:13:11;;;;;;;2.37;0.80;;;;;;;-142.75;100.00;75842.03;5050208;28;20108;-65
2021/11/27 02:15:37;;;;;;;5.75;1.83;;;;;;;-142.75;100.00;75834.16;5050616;28;20017;-66
2021/11/27 02:18:03;;;;;;;3.00;1.05;;;;;;;-142.75;100.00;75826.28;5032444;28;20021;-66
2021/11/27 02:20:32;;;;;;;;;;;;;;;-142.75;100.00;75830.22;5050083;28;20056;-66
2021/11/27 02:22:57;;;;;;;4.07;1.23;;;;;;;-142.75;100.00;75840.06;5032555;28;21748;-65
2021/11/27 02:25:23;;;;;;;3.30;1.30;;;;;;;-142.75;100.00;75845.97;5050109;28;20032;-65
2021/11/27 02:27:52;;;;;;;5.95;1.30;;;;;;;-142.75;100.00;75857.78;5050391;28;20031;-66
2021/11/27 02:30:22;;;;;;;4.97;1.33;;;;;;;-142.75;100.00;75861.69;5049667;28;20029;-66
2021/11/27 02:32:47;;;;;;;3.20;1.30;;;;;;;-142.75;100.00;75865.63;5050348;28;20048;-65
2021/11/27 02:35:13;;;;;;;3.65;1.08;;;;;;;-142.75;100.00;75853.84;5049972;28;20033;-65
2021/11/27 02:37:38;;;;;;;3.65;1.50;;;;;;;-142.75;100.00;75851.88;5050131;28;20025;-65
2021/11/27 02:40:06;;;;;;;2.63;1.27;;;;;;;-142.75;100.00;75863.66;5049812;28;20029;-65
2021/11/27 02:42:32;;;;;;;3.87;1.30;;;;;;;-142.75;100.00;75865.63;5049903;28;20044;-65
2021/11/27 02:44:57;;;;;;;3.10;1.27;;;;;;;-142.75;100.00;75859.72;5049780;28;20025;-65
2021/11/27 02:47:22;;;;;;;2.20;1.30;;;;;;;-142.75;100.00;75855.81;5049791;28;20029;-65
2021/11/27 02:49:48;;;;;;;4.73;1.57;;;;;;;-142.75;100.00;75871.53;5049492;28;20467;-65
2021/11/27 02:52:13;;;;;;;6.32;1.45;;;;;;;-142.75;100.00;75871.53;5032249;28;20307;-65
2021/11/27 02:54:39;;;;;;;5.95;1.27;;;;;;;-142.75;100.00;75871.53;5049914;28;20039;-65
2021/11/27 02:57:05;;;;;;;4.88;1.50;;;;;;;-142.75;100.00;75865.63;5049746;28;20032;-65
2021/11/27 02:59:31;;;;;;;6.67;1.80;;;;;;;-142.75;100.00;75865.63;5049330;28;20032;-65
2021/11/27 03:01:58;;;;;;;6.15;2.10;;;;;;;-142.75;100.00;75869.56;5049399;28;20028;-65
2021/11/27 03:04:29;;;;;;;7.03;3.10;;;;;;;-142.75;100.00;75869.56;5031475;28;20731;-65
2021/11/27 03:06:55;;;;;;;9.13;1.73;;;;;;;-142.75;100.00;75875.47;5031629;28;20033;-65
2021/11/27 03:09:21;;;;;;;6.65;1.58;;;;;;;-142.75;100.00;75877.44;5049950;28;20040;-65
2021/11/27 03:11:51;;;;;;;5.47;1.77;;;;;;;-142.75;100.00;75875.47;5049040;28;20020;-65
2021/11/27 03:14:18;;;;;;;4.67;1.27;;;;;;;-142.75;100.00;75877.44;5048784;28;20036;-65
2021/11/27 03:16:44;;;;;;;9.73;1.90;;;;;;;-142.75;100.00;75887.28;5031663;28;20513;-65
2021/11/27 03:19:10;;;;;;;4.22;1.40;;;;;;;-142.75;100.00;75885.31;5031313;28;20025;-65
2021/11/27 03:21:36;;;;;;;3.70;1.67;;;;;;;-142.75;100.00;75889.25;5048605;28;20448;-65
2021/11/27 03:24:02;;;;;;;9.27;1.70;;;;;;;-142.75;100.00;75895.16;5047224;28;20104;-65
2021/11/27 03:26:27;;;;;;;2.63;1.55;;;;;;;-142.75;100.00;75893.19;5049250;28;20032;-65
2021/11/27 03:28:53;;;;;;;6.65;1.85;;;;;;;-142.75;100.00;75893.19;5048912;28;20025;-65
2021/11/27 03:31:18;;;;;;;3.67;1.63;;;;;;;-142.75;100.00;75912.88;5048681;28;20052;-65
2021/11/27 03:33:44;;;;;;;3.92;1.63;;;;;;;-142.75;100.00;75905.00;5049013;28;20115;-65
2021/11/27 03:36:09;;;;;;;2.67;1.23;;;;;;;-142.75;100.00;75908.94;5048935;28;20107;-65
2021/11/27 03:38:35;;;;;;;5.03;1.95;;;;;;;-142.75;100.00;75893.19;5031401;28;20016;-65
2021/11/27 03:41:02;;;;;;;6.45;2.20;;;;;;;-142.75;100.00;75897.13;5048540;28;20037;-65
2021/11/27 03:43:27;;;;;;;5.37;1.80;;;;;;;-142.75;100.00;75903.03;5048772;28;20497;-64
2021/11/27 03:45:53;;;;;;;4.63;1.65;;;;;;;-142.75;100.00;75893.19;5031149;28;20024;-64
2021/11/27 03:48:27;;;;;;;5.65;2.55;;;;;;;-142.75;100.00;75903.03;5048869;28;20025;-65
2021/11/27 03:50:54;;;;;;;4.33;1.87;;;;;;;-142.75;100.00;75899.09;5047969;28;20020;-65
2021/11/27 03:53:24;;;;;;;2.37;1.40;;;;;;;-142.75;100.00;75891.22;5048764;28;20104;-66
2021/11/27 03:55:50;;;;;;;5.23;1.80;;;;;;;-142.75;100.00;75897.13;5047773;28;20021;-64
2021/11/27 03:58:16;;;;;;;4.18;2.13;;;;;;;-142.75;100.00;75897.13;5048825;28;20036;-65
2021/11/27 04:00:42;;;;;;;4.05;1.88;;;;;;;-142.75;100.00;75899.09;5046728;28;20082;-65
2021/11/27 04:03:11;;;;;;;3.50;1.73;;;;;;;-142.75;100.00;75895.16;5048557;28;20899;-65
2021/11/27 04:05:42;;;;;;;4.73;2.23;;;;;;;-142.75;100.00;75885.31;5048715;28;20044;-65
2021/11/27 04:08:07;;;;;;;3.53;1.70;;;;;;;-142.75;100.00;75887.28;5030762;28;20110;-65
2021/11/27 04:10:33;;;;;;;7.50;2.80;;;;;;;-142.75;100.00;75895.16;5048383;28;20470;-65
2021/11/27 04:13:00;;;;;;;4.72;2.90;;;;;;;-142.75;100.00;75893.19;5048239;28;20426;-65
2021/11/27 04:15:25;;;;;;;5.10;2.73;;;;;;;-142.75;100.00;75899.09;5048539;28;20100;-66
2021/11/27 04:17:50;;;;;;;6.32;2.72;;;;;;;-142.75;100.00;75908.94;5048378;28;20167;-65
2021/11/27 04:20:16;;;;;;;6.93;3.22;;;;;;;-142.75;100.00;75905.00;5066530;28;20028;-66
2021/11/27 04:22:41;;;;;;;8.02;3.17;;;;;;;-142.75;100.00;75916.81;5050407;28;20016;-65
2021/11/27 04:25:07;;;;;;;10.07;3.75;;;;;;;-142.75;100.00;75924.69;5050561;28;20711;-65
2021/11/27 04:27:33;;;;;;;6.90;3.70;;;;;;;-142.75;100.00;75922.72;5068083;28;20016;-66
2021/11/27 04:29:58;;;;;;;6.50;4.07;;;;;;;-142.75;100.00;75938.47;5067578;28;20066;-65
2021/11/27 04:32:24;;;;;;;11.45;4.18;;;;;;;-142.75;100.00;75942.41;5068329;28;20090;-65
2021/11/27 04:34:49;;;;;;;7.30;4.25;;;;;;;-142.75;100.00;75942.41;5068264;28;20482;-65
2021/11/27 04:37:15;;;;;;;8.40;4.43;;;;;;;-142.75;100.00;75948.31;5072502;28;20029;-65
2021/11/27 04:39:41;;;;;;;6.50;3.83;;;;;;;-142.75;100.00;75952.25;5071825;28;20279;-65
2021/11/27 04:42:07;;;;;;;6.82;4.68;;;;;;;-142.75;100.00;75952.25;5072170;28;20027;-65
2021/11/27 04:44:33;;;;;;;8.90;5.07;;;;;;;-142.75;100.00;75954.22;5072149;28;20524;-65
2021/11/27 04:46:58;;;;;;;9.85;5.05;;;;;;;-142.75;100.00;75952.25;5072419;28;20032;-65
2021/11/27 04:49:23;;;;;;;7.67;6.03;;;;;;;-142.75;100.00;75942.41;5071854;28;20036;-66
2021/11/27 04:51:49;;;;;;;8.97;5.30;;;;;;;-142.75;100.00;75950.28;5071398;28;20390;-65
2021/11/27 04:54:14;;;;;;;8.00;5.70;;;;;;;-142.75;100.00;75952.25;5071891;28;20028;-65
2021/11/27 04:56:39;;;;;;;9.43;6.25;;;;;;;-142.75;100.00;75960.13;5072027;28;20543;-65
2021/11/27 04:59:05;;;;;;;11.50;5.85;;;;;;;-142.75;100.00;75967.97;5071888;28;20048;-65
2021/11/27 05:01:30;;;;;;;9.48;5.70;;;;;;;-142.75;100.00;75973.88;5070950;28;20024;-65
2021/11/27 05:03:56;;;;;;;11.43;6.30;;;;;;;-142.75;100.00;75995.53;5071974;28;20047;-65
2021/11/27 05:06:22;;;;;;;11.40;6.18;;;;;;;-142.75;100.00;75995.53;5071375;28;20037;-65
2021/11/27 05:08:47;;;;;;;14.93;7.95;;;;;;;-142.75;100.00;75993.56;5054420;28;20393;-65
2021/11/27 05:11:13;;;;;;;12.70;7.23;;;;;;;-142.75;100.00;75999.47;5071179;28;20111;-65
2021/11/27 05:13:39;;;;;;;13.02;8.60;;;;;;;-142.75;100.00;76003.41;5071093;28;20382;-67
2021/11/27 05:16:05;;;;;;;;;;;;;;;-142.75;100.00;76001.44;5072148;28;20494;-65
2021/11/27 05:18:30;;;;;;;16.43;8.90;;;;;;;-142.75;100.00;76007.34;5084717;22;19950;-68
2021/11/27 05:20:56;;;;;;;17.20;9.03;;;;;;;-142.75;100.00;76007.34;5052591;28;20115;-68
2021/11/27 05:23:21;;;;;;;16.10;9.18;;;;;;;-142.75;100.00;76007.34;5071411;28;20267;-66
2021/11/27 05:25:46;;;;;;;16.50;8.60;;;;;;;-142.75;100.00;76005.38;5071720;28;20039;-68
2021/11/27 05:28:11;;;;;;;16.83;8.83;;;;;;;-142.75;100.00;76009.31;5074263;28;20314;-68
2021/11/27 05:30:37;;;;;;;17.20;9.50;;;;;;;-142.75;100.00;76007.34;5090848;28;20270;-68
2021/11/27 05:35:28;;;;;;;15.88;9.98;;;;;;;-142.75;100.00;76007.34;5091533;28;20039;-66
2021/11/27 05:37:53;;;;;;;19.75;9.55;;;;;;;-142.75;100.00;76009.31;5091541;28;20023;-68
2021/11/27 05:40:18;;;;;;;22.17;10.40;;;;;;;-142.75;100.00;76005.38;5091614;28;20031;-68
2021/11/27 05:42:44;;;;;;;20.50;8.77;;;;;;;-142.75;100.00;76009.31;5091546;28;20073;-68
2021/11/27 05:45:11;;;;;;;17.23;9.35;;;;;;;-142.75;100.00;76003.41;5091238;28;20400;-68
2021/11/27 05:47:37;;;;;;;13.43;8.73;;;;;;;-142.75;100.00;76005.38;5090680;28;20036;-67
2021/11/27 05:50:04;;;;;;;19.83;9.63;;;;;;;-142.75;100.00;76013.25;5090375;28;20543;-68
2021/11/27 05:52:29;;;;;;;16.27;8.90;;;;;;;-142.75;100.00;76027.03;5090854;28;20486;-67
2021/11/27 05:54:55;;;;;;;16.60;9.35;;;;;;;-142.75;100.00;76027.03;5091288;28;20019;-68
2021/11/27 05:57:21;;;;;;;16.63;8.82;;;;;;;-142.75;100.00;76023.09;5073000;28;20093;-66
2021/11/27 05:59:46;;;;;;;18.00;9.07;;;;;;;-142.75;100.00;76021.13;5090342;28;20069;-68
2021/11/27 06:02:12;;;;;;;14.45;8.07;;;;;;;-142.75;100.00;76042.78;5072707;28;20028;-67
2021/11/27 06:04:38;;;;;;;14.27;8.70;;;;;;;-142.75;100.00;76048.69;5091130;28;20362;-67
2021/11/27 06:07:03;;;;;;;11.70;7.90;;;;;;;-142.75;100.00;76066.41;5090675;28;20024;-68
2021/11/27 06:09:28;;;;;;;15.07;7.63;;;;;;;-142.75;100.00;76062.47;5091329;28;20057;-67
2021/11/27 06:11:54;;;;;;;12.13;7.37;;;;;;;-142.75;100.00;76070.34;5090120;28;20405;-67
2021/11/27 06:14:19;;;;;;;12.95;5.55;;;;;;;-142.75;100.00;76090.00;5072598;28;20290;-67
2021/11/27 06:16:45;;;;;;;13.20;6.25;;;;;;;-142.75;100.00;76070.34;5091032;28;20106;-68
2021/11/27 06:19:11;;;;;;;11.30;6.40;;;;;;;-142.75;100.00;76078.19;5090576;28;20433;-67
2021/11/27 06:21:36;;;;;;;13.40;7.55;;;;;;;-142.75;100.00;76074.25;5068323;28;20024;-68
2021/11/27 06:24:02;;;;;;;12.48;8.02;;;;;;;-142.75;100.00;76082.13;5070500;28;20028;-67
2021/11/27 06:26:27;;;;;;;14.82;8.88;;;;;;;-142.75;100.00;76082.13;5070232;28;20024;-67
2021/11/27 06:28:53;;;;;;;12.68;7.30;;;;;;;-142.75;100.00;76074.25;5071136;28;20096;-67
2021/11/27 06:31:19;;;;;;;9.05;6.05;;;;;;;-142.75;100.00;76113.63;5069654;28;20028;-68
2021/11/27 06:33:44;;;;;;;19.95;7.03;;;;;;;-142.75;100.00;76117.56;5090575;28;20028;-67
2021/11/27 06:36:09;;;;;;;10.30;7.38;;;;;;;-142.75;100.00;76113.63;5072300;28;20035;-68
2021/11/27 06:38:35;;;;;;;11.35;7.95;;;;;;;-142.75;100.00;76121.50;5090296;28;20370;-68
2021/11/27 06:41:00;;;;;;;15.63;10.32;;;;;;;-142.75;100.00;76121.50;5070074;28;20020;-67
2021/11/27 06:43:26;;;;;;;18.08;10.98;;;;;;;-142.75;100.00;76105.75;5090123;28;20389;-67
2021/11/27 06:45:52;;;;;;;17.45;11.52;;;;;;;-142.75;100.00;76097.88;5090046;28;20028;-68
2021/11/27 06:48:17;;;;;;;19.08;11.40;;;;;;;-142.75;100.00;76105.75;5090267;28;20032;-68
2021/11/27 06:50:42;;;;;;;16.70;10.77;;;;;;;-142.75;100.00;76147.09;5089339;28;20024;-67
2021/11/27 06:53:08;;;;;;;13.43;10.05;;;;;;;-142.75;100.00;76133.31;5071714;28;20027;-68
2021/11/27 06:55:34;;;;;;;15.45;10.50;;;;;;;-142.75;100.00;76129.38;5089852;28;20031;-67
2021/11/27 06:57:59;;;;;;;16.42;12.18;;;;;;;-142.75;100.00;76133.31;5089747;28;20070;-67
2021/11/27 07:00:24;;;;;;;26.80;17.38;;;;;;;-142.75;100.00;76125.44;5087949;28;20019;-68
2021/11/27 07:02:50;;;;;;;16.58;11.43;;;;;;;-142.75;100.00;76137.25;5089304;28;20020;-66
2021/11/27 07:05:15;;;;;;;18.57;10.73;;;;;;;-142.75;100.00;76149.06;5083293;28;20402;-68
2021/11/27 07:07:40;;;;;;;15.83;10.80;;;;;;;-142.75;100.00;76133.31;5069054;28;20270;-67
2021/11/27 07:10:06;;;;;;;17.02;11.85;;;;;;;-142.75;100.00;76129.38;5068370;28;20312;-68
2021/11/27 07:12:32;;;;;;;18.60;10.45;;;;;;;-142.75;100.00;76139.22;5068680;28;20477;-69
2021/11/27 07:15:01;;;;;;;15.85;10.35;;;;;;;-142.75;100.00;76143.16;5050931;28;20020;-68
2021/11/27 07:17:26;;;;;;;16.60;10.07;;;;;;;-142.75;100.00;76156.94;5076853;28;20024;-67
2021/11/27 07:19:52;;;;;;;20.60;11.00;;;;;;;-142.75;100.00;76160.88;5070326;28;20548;-67
2021/11/27 07:22:17;;;;;;;18.10;10.67;;;;;;;-142.75;100.00;76166.78;5089898;28;20020;-66
2021/11/27 07:24:42;;;;;;;19.50;12.87;;;;;;;-142.75;100.00;76184.50;5089466;28;20639;-67
2021/11/27 07:27:08;;;;;;;17.25;10.57;;;;;;;-142.75;100.00;76200.25;5089464;28;20076;-67
2021/11/27 07:29:35;;;;;;;18.63;11.13;;;;;;;-142.75;100.00;76200.25;5089015;28;20028;-67
2021/11/27 07:32:00;;;;;;;20.37;11.53;;;;;;;-142.75;100.00;76200.25;5088451;28;20077;-68
2021/11/27 07:34:26;;;;;;;20.33;11.93;;;;;;;-142.75;100.00;76198.28;5076547;28;20044;-67
2021/11/27 07:36:51;;;;;;;17.15;11.07;;;;;;;-142.75;100.00;76208.09;5069225;28;20025;-68
2021/11/27 07:39:17;;;;;;;20.10;10.35;;;;;;;-142.75;100.00;76208.09;5069057;28;20028;-67
2021/11/27 07:41:42;;;;;;;19.35;10.57;;;;;;;-142.75;100.00;76229.75;5073877;28;20031;-67
2021/11/27 07:44:07;;;;;;;21.73;11.85;;;;;;;-142.75;100.00;76223.84;5070984;28;20914;-67
2021/11/27 07:46:33;;;;;;;25.85;12.15;;;;;;;-142.75;100.00;76231.72;5070963;28;20023;-67
2021/11/27 07:48:58;;;;;;;20.85;12.30;;;;;;;-142.75;100.00;76235.66;5089033;28;20032;-68
2021/11/27 07:51:24;;;;;;;21.50;11.73;;;;;;;-142.75;100.00;76225.81;5069963;28;20153;-66
2021/11/27 07:53:49;;;;;;;26.85;13.27;;;;;;;-142.75;100.00;76235.66;5070777;28;20379;-65
2021/11/27 07:56:14;;;;;;;27.25;13.45;;;;;;;-142.75;100.00;76239.59;5089178;28;20028;-68
2021/11/27 07:58:40;;;;;;;24.77;14.52;;;;;;;-142.75;100.00;76239.59;5070810;28;20055;-69
2021/11/27 08:01:05;;;;;;;26.17;15.20;;;;;;;-142.75;100.00;76231.72;5088152;28;20073;-68
2021/11/27 08:03:31;;;;;;;21.45;13.90;;;;;;;-142.75;100.00;76208.09;5081336;28;20016;-69
2021/11/27 08:05:57;;;;;;;27.85;15.48;;;;;;;-142.75;100.00;76219.91;5069176;28;20081;-67
2021/11/27 08:08:22;;;;;;;32.40;15.32;;;;;;;-142.75;100.00;76210.06;5068453;28;20016;-67
2021/11/27 08:10:47;;;;;;;31.13;17.70;;;;;;;-142.75;100.00;76223.84;5067254;28;20120;-67
2021/11/27 08:13:13;;;;;;;24.15;15.30;;;;;;;-142.75;100.00;76227.78;5068442;28;20043;-68
2021/11/27 08:15:38;;;;;;;27.92;15.25;;;;;;;-142.75;100.00;76233.69;5050522;28;20041;-68
2021/11/27 08:18:03;;;;;;;25.30;14.68;;;;;;;-142.75;100.00;76229.75;5068318;28;20044;-67
2021/11/27 08:20:28;;;;;;;27.92;15.60;;;;;;;-142.75;100.00;76239.59;5067836;28;20028;-67
2021/11/27 08:22:54;;;;;;;34.08;16.98;;;;;;;-142.75;100.00;76243.53;5050540;28;20020;-66
2021/11/27 08:25:20;;;;;;;28.15;15.05;;;;;;;-142.75;100.00;76239.59;5068399;28;20033;-67
2021/11/27 08:27:45;;;;;;;35.13;15.45;;;;;;;-142.75;100.00;76247.47;5068608;28;20047;-67
2021/11/27 08:30:12;;;;;;;26.15;14.93;;;;;;;-142.75;100.00;76245.50;5049623;28;20411;-66
2021/11/27 08:32:38;;;;;;;28.03;15.20;;;;;;;-142.75;100.00;76255.34;5050170;28;20021;-68
2021/11/27 08:35:06;;;;;;;29.30;15.87;;;;;;;-142.75;100.00;76251.41;5068887;28;20391;-66
2021/11/27 08:37:31;;;;;;;35.13;16.20;;;;;;;-142.75;100.00;76249.44;5068603;28;20029;-66
2021/11/27 08:39:58;;;;;;;36.47;18.60;;;;;;;-142.75;100.00;76251.41;5048727;28;20513;-67
2021/11/27 08:42:24;;;;;;;38.83;19.03;;;;;;;-142.75;100.00;76257.31;5086712;28;20032;-66
2021/11/27 08:44:50;;;;;;;35.67;18.92;;;;;;;-142.75;100.00;76251.41;5070152;28;20020;-65
2021/11/27 08:47:17;;;;;;;36.95;19.73;;;;;;;-142.75;100.00;76263.22;5070390;28;20034;-67
2021/11/27 08:49:42;;;;;;;45.77;21.73;;;;;;;-142.75;100.00;76269.13;5087782;28;20192;-67
2021/11/27 08:52:08;;;;;;;36.88;20.10;;;;;;;-142.75;100.00;76259.28;5088671;28;20034;-67
2021/11/27 08:54:33;;;;;;;46.58;19.38;;;;;;;-142.75;100.00;76261.25;5088135;28;20016;-67
2021/11/27 08:56:59;;;;;;;47.05;18.55;;;;;;;-142.75;100.00;76255.34;5071573;28;20051;-67
2021/11/27 08:59:24;;;;;;;36.85;18.50;;;;;;;-142.75;100.00;76247.47;5074721;28;20595;-66
2021/11/27 09:01:52;;;;;;;41.38;18.50;;;;;;;-142.75;100.00;76241.56;5088180;28;20024;-67
2021/11/27 09:04:17;;;;;;;34.83;17.27;;;;;;;-142.75;100.00;76235.66;5089066;28;20477;-66
2021/11/27 09:06:43;;;;;;;38.43;17.63;;;;;;;-142.75;100.00;76247.47;5088913;28;20027;-68
2021/11/27 09:09:08;;;;;;;37.30;18.60;;;;;;;-142.75;100.00;76251.41;5070803;28;21623;-67
2021/11/27 09:11:34;;;;;;;40.05;18.40;;;;;;;-142.75;100.00;76251.41;5088020;28;20323;-67
2021/11/27 09:14:00;;;;;;;48.00;19.87;;;;;;;-142.75;100.00;76235.66;5070704;28;20531;-68
2021/11/27 09:16:26;;;;;;;;;;;;;;;-142.75;100.00;76263.22;5089062;28;20031;-67
2021/11/27 09:18:51;;;;;;;47.43;19.83;;;;;;;-142.75;100.00;76251.41;5088556;28;19912;-65
2021/11/27 09:21:16;;;;;;;50.17;21.40;;;;;;;-142.75;100.00;76255.34;5088264;28;20032;-68
2021/11/27 09:23:42;;;;;;;44.95;20.40;;;;;;;-142.75;100.00;76239.59;5091637;28;20430;-68
2021/11/27 09:26:07;;;;;;;41.15;19.40;;;;;;;-142.75;100.00;76259.28;5074138;28;20027;-68
2021/11/27 09:28:34;;;;;;;39.75;18.85;;;;;;;-142.75;100.00;76249.44;5092300;28;20077;-68
2021/11/27 09:30:59;;;;;;;38.57;19.53;;;;;;;-142.75;100.00;76231.72;5081237;28;20115;-68
2021/11/27 09:33:26;;;;;;;45.58;18.73;;;;;;;-142.75;100.00;76235.66;5071935;28;20104;-67
2021/11/27 09:35:59;;;;;;;45.27;20.43;;;;;;;-142.75;100.00;76245.50;5071769;28;20050;-66
2021/11/27 09:38:24;;;;;;;35.80;17.77;;;;;;;-142.75;100.00;76239.59;5053577;28;20093;-68
2021/11/27 09:40:52;;;;;;;41.60;17.25;;;;;;;-142.75;100.00;76255.34;5070066;28;20537;-67
2021/11/27 09:43:19;;;;;;;41.00;17.33;;;;;;;-142.75;100.00;76265.19;5054096;28;20063;-66
2021/11/27 09:45:46;;;;;;;35.07;15.60;;;;;;;-142.75;100.00;76261.25;5071829;28;20055;-67
2021/11/27 09:48:13;;;;;;;37.73;15.57;;;;;;;-142.75;100.00;76273.06;5071776;28;20386;-67
2021/11/27 09:50:39;;;;;;;36.37;15.47;;;;;;;-142.75;100.00;76275.03;5052983;28;20036;-67
2021/11/27 09:53:05;;;;;;;34.70;15.00;;;;;;;-142.75;100.00;76271.09;5053517;28;20062;-67
2021/11/27 09:55:31;;;;;;;41.60;15.15;;;;;;;-142.75;100.00;76271.09;5053598;28;20033;-67
2021/11/27 09:57:56;;;;;;;31.83;15.30;;;;;;;-142.75;100.00;76263.22;5072536;28;20181;-67
2021/11/27 10:00:21;;;;;;;41.25;15.07;;;;;;;-142.75;100.00;76253.38;5090898;28;20078;-67
2021/11/27 10:02:55;;;;;;;39.40;14.45;;;;;;;-142.75;100.00;76251.41;5091999;28;20481;-67
2021/11/27 10:05:21;;;;;;;34.63;14.77;;;;;;;-142.75;100.00;76251.41;5091655;28;20050;-65
2021/11/27 10:07:48;;;;;;;37.57;13.57;;;;;;;-142.75;100.00;76251.41;5091710;28;20396;-67
2021/11/27 10:10:15;;;;;;;32.03;13.53;;;;;;;-142.75;100.00;76243.53;5072843;28;20076;-68
2021/11/27 10:12:41;;;;;;;36.70;13.53;;;;;;;-142.75;100.00;76231.72;5091182;28;20019;-67
2021/11/27 10:15:08;;;;;;;32.13;12.00;;;;;;;-142.75;100.00;76229.75;5091362;28;20024;-67
2021/11/27 10:17:34;;;;;;;32.47;12.13;;;;;;;-142.75;100.00;76245.50;5091303;28;20031;-67
2021/11/27 10:20:00;;;;;;;36.13;12.52;;;;;;;-142.75;100.00;76251.41;5090344;28;20032;-67
2021/11/27 10:22:41;;;;;;;76.53;41.10;;;;;;;-142.75;100.00;76251.41;5091154;28;20024;-68
2021/11/27 10:25:29;;;;;;;54.43;27.43;;;;;;;-142.75;100.00;76255.34;5091169;28;20347;-67
2021/11/27 10:28:16;;;;;;;40.50;13.07;;;;;;;-142.75;100.00;76255.34;5072768;28;20107;-68
2021/11/27 10:30:58;;;;;;;48.90;16.73;;;;;;;-142.75;100.00;76243.53;5090305;28;20031;-67
2021/11/27 10:33:23;;;;;;;36.80;13.30;;;;;;;-142.75;100.00;76241.56;5090653;28;20055;-66
2021/11/27 10:35:55;;;;;;;41.55;11.60;;;;;;;-142.75;100.00;76259.28;5091912;28;20059;-65
2021/11/27 10:38:20;;;;;;;36.43;12.60;;;;;;;-142.75;100.00;76237.63;5074533;28;20433;-66
2021/11/27 10:40:57;;;;;;;27.85;10.60;;;;;;;-142.75;100.00;76231.72;5090072;28;20052;-68
2021/11/27 10:43:23;;;;;;;29.27;9.60;;;;;;;-142.75;100.00;76233.69;5090851;28;20077;-66
2021/11/27 10:45:48;;;;;;;34.92;9.90;;;;;;;-142.75;100.00;76245.50;5077667;28;20032;-67
2021/11/27 10:48:24;;;;;;;29.25;9.55;;;;;;;-142.75;100.00;76235.66;5070804;28;20076;-68
2021/11/27 10:50:53;;;;;;;30.10;8.43;;;;;;;-142.75;100.00;76235.66;5069838;28;20544;-65
2021/11/27 10:53:35;;;;;;;32.00;9.07;;;;;;;-142.75;100.00;76212.03;5052757;28;20028;-68
2021/11/27 10:56:11;;;;;;;34.97;10.97;;;;;;;-142.75;100.00;76200.25;5070312;28;20028;-68
2021/11/27 10:58:59;;;;;;;30.25;10.15;;;;;;;-142.75;100.00;76172.69;5070309;28;20035;-67
2021/11/27 11:01:25;;;;;;;35.77;10.20;;;;;;;-142.75;100.00;76160.88;5069675;28;20424;-67
2021/11/27 11:03:51;;;;;;;31.13;10.43;;;;;;;-142.75;100.00;76153.00;5052386;28;20025;-67